createdAt,value
2023-08-29T03:00:16.445Z,14.00
2023-08-29T03:30:16.686Z,14.03
2023-08-29T04:15:17.060Z,14.00
2023-08-29T04:17:45.660Z,14.00
2023-08-29T04:20:14.009Z,13.95
2023-08-29T04:22:41.330Z,13.92
2023-08-29T04:25:48.360Z,13.92
2023-08-29T04:34:33.083Z,13.98
2023-08-29T04:37:00.361Z,13.98
2023-08-29T04:39:27.663Z,14.00
2023-08-29T04:41:55.039Z,14.01
2023-08-29T04:44:33.061Z,14.03
2023-08-29T04:47:00.765Z,14.01
2023-08-29T04:52:37.388Z,14.00
2023-08-29T04:55:09.106Z,14.02
2023-08-29T05:18:36.722Z,13.95
2023-08-29T05:21:32.451Z,14.01
2023-08-29T05:24:04.671Z,14.10
2023-08-29T05:51:09.877Z,14.36
2023-08-29T05:53:45.092Z,14.36
2023-08-29T05:56:15.980Z,14.38
2023-08-29T05:58:43.475Z,14.43
2023-08-29T06:01:10.865Z,14.49
2023-08-29T06:03:38.432Z,14.52
2023-08-29T06:06:05.860Z,14.55
2023-08-29T06:08:35.887Z,14.57
2023-08-29T06:11:05.102Z,14.64
2023-08-29T06:13:32.595Z,14.72
2023-08-29T06:15:59.880Z,14.76
2023-08-29T06:18:27.308Z,14.78
2023-08-29T06:20:54.587Z,14.80
2023-08-29T06:23:21.830Z,14.89
2023-08-29T06:25:50.424Z,14.93
2023-08-29T06:28:17.877Z,14.96
2023-08-29T06:30:47.298Z,15.08
2023-08-29T06:33:14.616Z,15.16
2023-08-29T06:35:42.263Z,15.22
2023-08-29T06:38:09.832Z,15.27
2023-08-29T06:40:37.675Z,15.32
2023-08-29T06:43:05.193Z,15.36
2023-08-29T06:45:33.037Z,15.39
2023-08-29T06:48:00.348Z,15.44
2023-08-29T06:50:27.727Z,15.56
2023-08-29T06:52:54.845Z,15.66
2023-08-29T06:55:22.146Z,15.72
2023-08-29T06:57:49.290Z,15.71
2023-08-29T07:00:18.245Z,15.70
2023-08-29T07:02:45.399Z,15.69
2023-08-29T07:05:12.776Z,15.71
2023-08-29T07:07:41.828Z,15.74
2023-08-29T07:10:09.577Z,15.81
2023-08-29T07:12:37.068Z,15.89
2023-08-29T07:15:04.879Z,15.99
2023-08-29T07:17:32.590Z,16.08
2023-08-29T07:20:00.145Z,16.17
2023-08-29T07:22:27.454Z,16.24
2023-08-29T07:24:55.187Z,16.25
2023-08-29T07:27:22.808Z,16.27
2023-08-29T07:29:50.259Z,16.22
2023-08-29T07:32:17.480Z,16.26
2023-08-29T07:34:44.735Z,16.32
2023-08-29T07:37:12.006Z,16.34
2023-08-29T07:39:39.529Z,16.35
2023-08-29T07:42:06.849Z,16.42
2023-08-29T07:44:34.007Z,16.50
2023-08-29T07:49:31.414Z,16.69
2023-08-29T07:51:59.027Z,16.78
2023-08-29T07:54:26.328Z,16.91
2023-08-29T07:56:54.650Z,17.08
2023-08-29T07:59:23.685Z,17.24
2023-08-29T08:01:51.214Z,17.26
2023-08-29T08:04:18.742Z,17.36
2023-08-29T08:06:46.056Z,17.44
2023-08-29T08:09:14.344Z,17.54
2023-08-29T08:11:41.601Z,17.65
2023-08-29T08:14:08.963Z,17.76
2023-08-29T08:16:36.347Z,17.96
2023-08-29T08:19:05.389Z,18.15
2023-08-29T08:21:32.875Z,18.33
2023-08-29T08:24:06.964Z,18.43
2023-08-29T08:26:37.349Z,18.50
2023-08-29T08:29:08.546Z,18.67
2023-08-29T08:31:36.071Z,18.81
2023-08-29T08:34:08.665Z,18.62
2023-08-29T08:36:38.438Z,18.53
2023-08-29T08:39:06.010Z,18.40
2023-08-29T08:41:37.952Z,18.33
2023-08-29T08:44:17.437Z,18.37
2023-08-29T08:46:48.703Z,18.43
2023-08-29T08:49:55.892Z,18.53
2023-08-29T08:52:24.274Z,18.50
2023-08-29T08:54:51.975Z,18.57
2023-08-29T08:57:23.868Z,18.67
2023-08-29T08:59:52.846Z,18.78
2023-08-29T09:02:20.802Z,19.03
2023-08-29T09:04:48.563Z,19.08
2023-08-29T09:07:15.774Z,19.23
2023-08-29T09:09:42.913Z,19.32
2023-08-29T09:12:10.209Z,19.46
2023-08-29T09:14:42.688Z,19.61
2023-08-29T09:17:10.183Z,19.65
2023-08-29T09:19:38.211Z,19.71
2023-08-29T09:22:05.487Z,19.89
2023-08-29T09:24:35.221Z,20.31
2023-08-29T09:27:13.586Z,20.72
2023-08-29T09:29:41.139Z,21.20
2023-08-29T09:32:15.652Z,21.77
2023-08-29T09:34:45.463Z,21.72
2023-08-29T09:37:15.933Z,21.79
2023-08-29T09:39:43.238Z,22.23
2023-08-29T09:42:12.045Z,21.85
2023-08-29T09:44:41.210Z,22.12
2023-08-29T09:47:10.909Z,23.08
2023-08-29T09:49:49.399Z,24.01
2023-08-29T09:52:18.032Z,24.55
2023-08-29T09:54:59.405Z,25.06
2023-08-29T09:57:32.765Z,25.65
2023-08-29T10:00:03.675Z,25.26
2023-08-29T10:02:35.594Z,25.21
2023-08-29T10:05:10.426Z,24.56
2023-08-29T10:07:47.310Z,23.62
2023-08-29T10:10:15.281Z,22.99
2023-08-29T10:12:47.602Z,22.64
2023-08-29T10:15:15.839Z,22.46
2023-08-29T10:17:44.131Z,22.34
2023-08-29T10:20:14.245Z,22.17
2023-08-29T10:22:49.727Z,22.05
2023-08-29T10:25:20.096Z,21.83
2023-08-29T10:27:47.613Z,21.50
2023-08-29T10:30:16.100Z,21.24
2023-08-29T10:32:46.163Z,21.05
2023-08-29T10:35:21.466Z,20.85
2023-08-29T10:37:53.218Z,20.72
2023-08-29T10:40:22.816Z,20.65
2023-08-29T10:42:56.160Z,20.63
2023-08-29T10:45:43.320Z,20.77
2023-08-29T10:48:11.080Z,21.77
2023-08-29T10:50:39.302Z,23.59
2023-08-29T10:53:19.181Z,24.24
2023-08-29T10:56:00.925Z,24.88
2023-08-29T10:58:40.606Z,25.94
2023-08-29T11:01:10.168Z,27.75
2023-08-29T11:03:54.332Z,28.60
2023-08-29T11:06:24.541Z,29.58
2023-08-29T11:09:12.216Z,29.52
2023-08-29T11:11:40.039Z,27.70
2023-08-29T11:14:10.130Z,26.33
2023-08-29T11:16:44.332Z,25.26
2023-08-29T11:19:13.664Z,24.45
2023-08-29T11:21:49.932Z,23.76
2023-08-29T11:24:17.728Z,23.18
2023-08-29T11:26:47.683Z,22.71
2023-08-29T11:29:15.168Z,22.36
2023-08-29T11:31:47.487Z,22.11
2023-08-29T11:34:22.152Z,21.79
2023-08-29T11:36:52.436Z,21.57
2023-08-29T11:39:23.348Z,21.33
2023-08-29T11:42:05.001Z,21.18
2023-08-29T11:48:13.236Z,21.03
2023-08-29T11:50:41.297Z,21.03
2023-08-29T11:53:09.086Z,21.07
2023-08-29T11:55:37.532Z,21.00
2023-08-29T11:58:07.301Z,21.14
2023-08-29T12:00:35.216Z,21.19
2023-08-29T12:03:02.855Z,21.32
2023-08-29T12:05:32.197Z,21.42
2023-08-29T12:07:59.554Z,21.19
2023-08-29T12:10:28.485Z,21.27
2023-08-29T12:12:56.813Z,21.21
2023-08-29T12:15:43.822Z,21.25
2023-08-29T12:18:34.139Z,22.16
2023-08-29T12:21:19.088Z,22.81
2023-08-29T12:23:47.456Z,23.73
2023-08-29T12:26:16.583Z,25.29
2023-08-29T12:28:44.537Z,25.02
2023-08-29T12:31:13.380Z,26.75
2023-08-29T12:33:41.014Z,28.62
2023-08-29T12:36:08.481Z,30.51
2023-08-29T12:38:35.793Z,32.29
2023-08-29T12:41:04.547Z,34.00
2023-08-29T12:43:31.870Z,35.08
2023-08-29T12:46:00.603Z,35.70
2023-08-29T12:48:28.505Z,37.11
2023-08-29T12:50:55.832Z,34.62
2023-08-29T12:53:23.156Z,34.58
2023-08-29T12:55:52.080Z,36.22
2023-08-29T12:58:19.303Z,33.41
2023-08-29T13:00:46.881Z,31.07
2023-08-29T13:03:14.472Z,29.02
2023-08-29T13:05:42.600Z,27.44
2023-08-29T13:08:10.223Z,26.36
2023-08-29T13:10:37.738Z,25.37
2023-08-29T13:13:05.131Z,24.71
2023-08-29T13:15:45.278Z,24.06
2023-08-29T13:18:18.077Z,23.48
2023-08-29T13:20:45.607Z,22.97
2023-08-29T13:23:12.861Z,22.64
2023-08-29T13:25:40.082Z,22.33
2023-08-29T13:28:07.738Z,22.02
2023-08-29T13:30:36.459Z,21.84
2023-08-29T13:33:04.922Z,21.76
2023-08-29T13:35:32.145Z,21.57
2023-08-29T13:37:59.425Z,21.34
2023-08-29T13:40:26.758Z,21.31
2023-08-29T13:42:53.921Z,21.27
2023-08-29T13:45:21.258Z,21.29
2023-08-29T13:47:48.966Z,21.23
2023-08-29T13:50:16.291Z,21.03
2023-08-29T13:52:43.573Z,20.87
2023-08-29T13:55:11.630Z,21.03
2023-08-29T13:57:38.994Z,21.26
2023-08-29T14:00:07.004Z,21.68
2023-08-29T14:02:40.789Z,22.60
2023-08-29T14:05:09.673Z,24.03
2023-08-29T14:07:37.316Z,26.88
2023-08-29T14:10:04.837Z,25.52
2023-08-29T14:12:32.243Z,24.22
2023-08-29T14:14:59.420Z,23.41
2023-08-29T14:17:26.567Z,22.86
2023-08-29T14:19:54.244Z,22.56
2023-08-29T14:22:21.385Z,22.39
2023-08-29T14:24:49.065Z,22.20
2023-08-29T14:27:16.353Z,22.27
2023-08-29T14:29:43.542Z,22.91
2023-08-29T14:32:10.765Z,25.26
2023-08-29T14:34:38.142Z,29.49
2023-08-29T14:37:05.257Z,32.33
2023-08-29T14:39:32.384Z,33.71
2023-08-29T14:41:59.736Z,35.59
2023-08-29T14:44:26.938Z,37.03
2023-08-29T14:46:54.259Z,38.21
2023-08-29T14:49:21.562Z,36.68
2023-08-29T14:51:49.124Z,34.63
2023-08-29T14:54:16.367Z,32.61
2023-08-29T14:56:43.871Z,31.17
2023-08-29T14:59:11.248Z,31.83
2023-08-29T15:01:39.206Z,32.94
2023-08-29T15:04:06.831Z,33.74
2023-08-29T15:06:34.431Z,34.73
2023-08-29T15:09:01.893Z,36.67
2023-08-29T15:11:29.231Z,38.22
2023-08-29T15:13:56.509Z,38.53
2023-08-29T15:16:23.870Z,38.38
2023-08-29T15:18:51.281Z,37.88
2023-08-29T15:21:19.969Z,37.52
2023-08-29T15:23:48.142Z,33.03
2023-08-29T15:26:15.457Z,33.29
2023-08-29T15:28:42.896Z,34.52
2023-08-29T15:31:10.112Z,34.75
2023-08-29T15:33:37.248Z,33.13
2023-08-29T15:36:04.586Z,30.31
2023-08-29T15:38:31.844Z,28.04
2023-08-29T15:41:25.849Z,26.40
2023-08-29T15:43:53.938Z,25.28
2023-08-29T15:46:21.750Z,24.49
2023-08-29T15:48:49.000Z,23.96
2023-08-29T15:51:17.331Z,23.47
2023-08-29T15:53:44.510Z,23.06
2023-08-29T15:56:12.308Z,22.73
2023-08-29T15:58:41.507Z,22.40
2023-08-29T16:01:08.999Z,22.13
2023-08-29T16:03:36.743Z,22.02
2023-08-29T16:06:07.195Z,21.86
2023-08-29T16:08:37.820Z,21.77
2023-08-29T16:11:05.140Z,21.76
2023-08-29T16:13:32.326Z,21.69
2023-08-29T16:15:59.707Z,21.67
2023-08-29T16:18:27.232Z,21.70
2023-08-29T16:20:54.839Z,21.74
2023-08-29T16:23:22.227Z,21.84
2023-08-29T16:25:52.114Z,21.96
2023-08-29T16:28:24.454Z,22.02
2023-08-29T16:30:52.105Z,22.05
2023-08-29T16:33:19.483Z,21.99
2023-08-29T16:35:46.845Z,22.03
2023-08-29T16:38:14.076Z,21.96
2023-08-29T16:40:41.320Z,21.93
2023-08-29T16:43:08.976Z,21.83
2023-08-29T16:45:36.323Z,21.75
2023-08-29T16:48:05.985Z,21.57
2023-08-29T16:50:33.564Z,21.42
2023-08-29T16:53:00.812Z,21.22
2023-08-29T16:55:28.063Z,21.14
2023-08-29T16:57:57.103Z,21.13
2023-08-29T17:01:13.280Z,20.97
2023-08-29T17:03:41.060Z,20.92
2023-08-29T17:06:10.007Z,21.27
2023-08-29T17:08:37.310Z,22.99
2023-08-29T17:11:04.860Z,22.72
2023-08-29T17:13:32.064Z,22.48
2023-08-29T17:16:00.620Z,22.17
2023-08-29T17:18:28.248Z,21.54
2023-08-29T17:20:56.781Z,21.19
2023-08-29T17:23:24.174Z,20.89
2023-08-29T17:25:51.441Z,20.64
2023-08-29T17:28:19.901Z,20.53
2023-08-29T17:30:47.171Z,20.36
2023-08-29T17:33:14.486Z,20.21
2023-08-29T17:35:41.763Z,20.15
2023-08-29T17:38:09.437Z,20.10
2023-08-29T17:40:36.978Z,19.95
2023-08-29T17:43:04.498Z,19.82
2023-08-29T17:45:32.749Z,19.74
2023-08-29T17:48:00.145Z,19.74
2023-08-29T17:50:27.473Z,19.57
2023-08-29T17:52:54.786Z,19.46
2023-08-29T17:55:21.997Z,19.43
2023-08-29T17:57:53.066Z,19.49
2023-08-29T18:00:20.942Z,19.40
2023-08-29T18:02:48.491Z,19.38
2023-08-29T18:05:15.813Z,19.33
2023-08-29T18:07:43.414Z,19.23
2023-08-29T18:10:15.963Z,19.17
2023-08-29T18:12:43.403Z,19.08
2023-08-29T18:15:11.751Z,18.96
2023-08-29T18:17:39.276Z,18.91
2023-08-29T18:20:07.743Z,18.85
2023-08-29T18:22:35.732Z,18.75
2023-08-29T18:25:03.362Z,18.76
2023-08-29T18:27:30.866Z,18.69
2023-08-29T18:29:58.115Z,18.57
2023-08-29T18:32:25.441Z,18.46
2023-08-29T18:34:54.247Z,18.42
2023-08-29T18:37:21.577Z,18.43
2023-08-29T18:39:48.744Z,18.42
2023-08-29T18:42:16.011Z,18.34
2023-08-29T18:44:43.150Z,18.31
2023-08-29T18:47:10.822Z,18.28
2023-08-29T18:49:38.067Z,18.26
2023-08-29T18:52:30.409Z,18.20
2023-08-29T18:54:58.022Z,18.14
2023-08-29T18:57:25.785Z,18.12
2023-08-29T18:59:53.035Z,18.09
2023-08-29T19:02:20.226Z,18.06
2023-08-29T19:04:47.401Z,17.98
2023-08-29T19:07:14.961Z,17.94
2023-08-29T19:09:44.049Z,17.91
2023-08-29T19:12:11.390Z,17.84
2023-08-29T19:14:38.582Z,17.78
2023-08-29T19:17:05.893Z,17.83
2023-08-29T19:19:33.045Z,17.83
2023-08-29T19:22:00.200Z,17.79
2023-08-29T19:24:28.492Z,17.75
2023-08-29T19:26:55.631Z,17.77
2023-08-29T19:29:23.159Z,17.74
2023-08-29T19:31:50.530Z,17.72
2023-08-29T19:34:17.800Z,17.71
2023-08-29T19:36:45.134Z,17.71
2023-08-29T19:39:17.601Z,17.70
2023-08-29T19:41:45.748Z,17.63
2023-08-29T19:44:13.076Z,17.61
2023-08-29T19:46:43.021Z,17.60
2023-08-29T19:49:10.400Z,17.77
2023-08-29T19:51:37.697Z,17.63
2023-08-29T19:54:05.031Z,17.55
2023-08-29T19:56:32.212Z,17.53
2023-08-29T19:59:00.134Z,17.49
2023-08-29T20:01:27.644Z,17.46
2023-08-29T20:03:54.960Z,17.39
2023-08-29T20:06:24.646Z,17.38
2023-08-29T20:08:52.467Z,17.38
2023-08-29T20:11:20.766Z,17.35
2023-08-29T20:13:48.086Z,17.37
2023-08-29T20:16:15.340Z,17.31
2023-08-29T20:18:42.547Z,17.30
2023-08-29T20:21:09.813Z,17.27
2023-08-29T20:23:44.850Z,17.31
2023-08-29T20:26:19.207Z,17.30
2023-08-29T20:28:46.496Z,17.26
2023-08-29T20:31:13.864Z,17.28
2023-08-29T20:33:41.241Z,17.28
2023-08-29T20:36:13.740Z,17.25
2023-08-29T20:38:41.153Z,17.24
2023-08-29T20:41:08.530Z,17.26
2023-08-29T20:43:35.770Z,17.25
2023-08-29T20:46:03.140Z,17.25
2023-08-29T20:48:30.399Z,17.24
2023-08-29T20:51:04.745Z,17.20
2023-08-29T20:53:35.301Z,17.20
2023-08-29T20:56:03.816Z,17.15
2023-08-29T20:58:31.195Z,17.16
2023-08-29T21:00:59.858Z,17.11
2023-08-29T21:03:33.101Z,17.08
2023-08-29T21:06:00.590Z,17.07
2023-08-29T21:08:28.651Z,17.04
2023-08-29T21:10:56.660Z,17.03
2023-08-29T21:13:24.259Z,16.93
2023-08-29T21:15:55.342Z,16.88
2023-08-29T21:18:22.611Z,16.84
2023-08-29T21:21:01.638Z,16.77
2023-08-29T21:23:30.221Z,16.82
2023-08-29T21:25:57.565Z,16.85
2023-08-29T21:28:26.824Z,16.84
2023-08-29T21:30:55.358Z,16.84
2023-08-29T21:33:24.429Z,16.75
2023-08-29T21:35:56.032Z,16.68
2023-08-29T21:38:23.965Z,16.65
2023-08-29T21:40:51.186Z,16.63
2023-08-29T21:43:23.100Z,16.63
2023-08-29T21:45:55.158Z,16.68
2023-08-29T21:48:25.946Z,16.71
2023-08-29T21:50:54.464Z,16.69
2023-08-29T21:53:21.799Z,16.70
2023-08-29T21:55:49.610Z,16.71
2023-08-29T21:58:17.879Z,16.68
2023-08-29T22:00:49.984Z,16.63
2023-08-29T22:03:17.291Z,16.56
2023-08-29T22:05:44.684Z,16.54
2023-08-29T22:08:12.197Z,16.55
2023-08-29T22:10:39.647Z,16.55
2023-08-29T22:13:09.875Z,16.55
2023-08-29T22:15:38.134Z,16.53
2023-08-29T22:18:06.147Z,16.52
2023-08-29T22:20:33.698Z,16.47
2023-08-29T22:23:01.079Z,16.39
2023-08-29T22:25:28.621Z,16.43
2023-08-29T22:27:55.814Z,16.45
2023-08-29T22:30:23.171Z,16.44
2023-08-29T22:32:53.301Z,16.42
2023-08-29T22:35:21.500Z,16.38
2023-08-29T22:37:48.932Z,16.36
2023-08-29T22:40:18.109Z,16.33
2023-08-29T22:42:46.400Z,16.33
2023-08-29T22:45:14.858Z,16.35
2023-08-29T22:47:42.496Z,16.38
2023-08-29T22:50:09.794Z,16.40
2023-08-29T22:52:40.371Z,16.41
2023-08-29T22:55:08.019Z,16.31
2023-08-29T22:57:36.509Z,16.24
2023-08-29T23:00:05.184Z,16.19
2023-08-29T23:02:32.673Z,16.23
2023-08-29T23:05:00.115Z,16.20
2023-08-29T23:07:27.268Z,16.17
2023-08-29T23:09:54.432Z,16.14
2023-08-29T23:12:21.737Z,16.13
2023-08-29T23:14:48.966Z,16.12
2023-08-29T23:17:16.178Z,16.14
2023-08-29T23:19:45.523Z,16.15
2023-08-29T23:22:12.868Z,16.12
2023-08-29T23:24:40.244Z,16.13
2023-08-29T23:27:07.599Z,16.16
2023-08-29T23:29:37.583Z,16.20
2023-08-29T23:32:06.297Z,16.23
2023-08-29T23:34:33.646Z,16.26
2023-08-29T23:37:00.782Z,16.27
2023-08-29T23:39:28.055Z,16.27
2023-08-29T23:41:57.156Z,16.26
2023-08-29T23:44:24.451Z,16.25
2023-08-29T23:46:51.858Z,16.24
2023-08-29T23:49:19.151Z,16.26
2023-08-29T23:51:46.399Z,16.25
2023-08-29T23:54:13.754Z,16.21
2023-08-29T23:56:41.037Z,16.17
2023-08-29T23:59:08.429Z,16.14
